createdAt,value
2023-04-25T00:00:43.166Z,5.43
2023-04-25T00:03:10.196Z,4.88
2023-04-25T00:05:38.236Z,4.75
2023-04-25T00:08:05.801Z,5.13
2023-04-25T00:10:32.452Z,4.80
2023-04-25T00:12:59.624Z,5.20
2023-04-25T00:15:26.197Z,4.90
2023-04-25T00:17:54.103Z,4.60
2023-04-25T00:20:20.860Z,4.50
2023-04-25T00:22:48.894Z,5.70
2023-04-25T00:25:15.684Z,4.60
2023-04-25T00:27:42.822Z,5.53
2023-04-25T00:30:09.811Z,5.13
2023-04-25T00:32:36.580Z,5.18
2023-04-25T00:35:03.252Z,5.07
2023-04-25T00:37:29.854Z,5.05
2023-04-25T00:39:58.608Z,5.28
2023-04-25T00:42:26.313Z,5.60
2023-04-25T00:44:53.977Z,4.90
2023-04-25T00:47:20.782Z,5.03
2023-04-25T00:49:47.450Z,5.07
2023-04-25T00:52:14.123Z,4.88
2023-04-25T00:54:40.770Z,5.55
2023-04-25T00:57:07.785Z,5.25
2023-04-25T00:59:34.564Z,4.80
2023-04-25T01:02:01.556Z,5.90
2023-04-25T01:04:28.844Z,6.03
2023-04-25T01:06:55.466Z,5.05
2023-04-25T01:09:23.394Z,5.70
2023-04-25T01:11:50.563Z,4.97
2023-04-25T01:14:17.358Z,4.75
2023-04-25T01:16:43.977Z,5.05
2023-04-25T01:19:14.128Z,4.18
2023-04-25T01:21:41.043Z,4.72
2023-04-25T01:24:08.434Z,5.13
2023-04-25T01:26:36.236Z,5.10
2023-04-25T01:29:05.314Z,5.35
2023-04-25T01:31:32.779Z,4.38
2023-04-25T01:33:59.885Z,4.40
2023-04-25T01:36:29.505Z,5.15
2023-04-25T01:38:56.335Z,5.10
2023-04-25T01:41:24.404Z,5.25
2023-04-25T01:43:51.302Z,4.20
2023-04-25T01:46:18.209Z,5.00
2023-04-25T01:48:45.300Z,4.75
2023-04-25T01:51:12.660Z,5.13
2023-04-25T01:53:40.076Z,5.25
2023-04-25T01:56:06.998Z,5.07
2023-04-25T01:58:35.539Z,5.85
2023-04-25T02:01:28.819Z,5.03
2023-04-25T02:04:12.177Z,5.43
2023-04-25T02:06:40.651Z,5.18
2023-04-25T02:09:07.914Z,5.70
2023-04-25T02:14:27.889Z,4.97
2023-04-25T02:17:17.147Z,4.85
2023-04-25T02:19:45.092Z,5.30
2023-04-25T02:22:13.102Z,4.68
2023-04-25T02:24:40.446Z,4.82
2023-04-25T02:27:07.166Z,4.03
2023-04-25T02:29:36.009Z,5.28
2023-04-25T02:32:03.137Z,4.38
2023-04-25T02:34:29.705Z,4.60
2023-04-25T02:36:56.278Z,4.18
2023-04-25T02:39:23.296Z,5.15
2023-04-25T02:41:50.005Z,4.25
2023-04-25T02:44:16.525Z,4.50
2023-04-25T02:46:44.969Z,3.83
2023-04-25T02:49:11.866Z,4.05
2023-04-25T02:51:38.587Z,4.50
2023-04-25T02:54:05.442Z,3.40
2023-04-25T02:56:36.425Z,3.38
2023-04-25T02:59:04.092Z,3.97
2023-04-25T03:01:32.148Z,3.28
2023-04-25T03:03:58.761Z,3.47
2023-04-25T03:06:25.505Z,3.10
2023-04-25T03:08:52.799Z,3.50
2023-04-25T03:11:21.177Z,3.00
2023-04-25T03:13:47.977Z,3.80
2023-04-25T03:16:14.827Z,3.63
2023-04-25T03:18:41.446Z,3.42
2023-04-25T03:21:08.028Z,3.55
2023-04-25T03:23:34.818Z,3.35
2023-04-25T03:26:01.477Z,2.58
2023-04-25T03:28:28.647Z,3.17
2023-04-25T03:30:56.760Z,3.10
2023-04-25T03:33:24.551Z,3.03
2023-04-25T03:35:51.339Z,3.65
2023-04-25T03:38:18.453Z,2.72
2023-04-25T03:40:45.775Z,3.42
2023-04-25T03:43:26.715Z,2.85
2023-04-25T03:45:59.026Z,3.55
2023-04-25T03:48:27.150Z,2.80
2023-04-25T03:50:55.426Z,2.17
2023-04-25T03:53:22.183Z,2.60
2023-04-25T03:56:12.042Z,2.13
2023-04-25T03:58:40.028Z,2.45
2023-04-25T04:01:08.514Z,1.90
2023-04-25T04:03:37.879Z,2.15
2023-04-25T04:06:06.670Z,2.03
2023-04-25T04:08:37.092Z,1.50
2023-04-25T04:11:03.874Z,1.73
2023-04-25T04:13:31.018Z,1.92
2023-04-25T04:15:58.619Z,2.58
2023-04-25T04:18:25.293Z,2.13
2023-04-25T04:20:52.404Z,1.80
2023-04-25T04:23:19.935Z,2.03
2023-04-25T04:25:47.858Z,1.70
2023-04-25T04:28:34.704Z,1.73
2023-04-25T04:31:06.691Z,1.67
2023-04-25T04:33:33.390Z,1.98
2023-04-25T04:36:04.078Z,1.40
2023-04-25T04:38:31.299Z,1.73
2023-04-25T04:41:01.597Z,1.63
2023-04-25T04:43:49.288Z,1.90
2023-04-25T04:46:45.622Z,1.83
2023-04-25T04:49:25.687Z,2.03
2023-04-25T04:52:09.490Z,1.98
2023-04-25T04:54:52.936Z,1.77
2023-04-25T04:57:45.544Z,2.22
2023-04-25T05:00:19.836Z,2.45
2023-04-25T05:03:06.656Z,1.98
2023-04-25T05:06:03.347Z,2.15
2023-04-25T05:08:48.059Z,2.28
2023-04-25T05:11:28.614Z,1.88
2023-04-25T05:13:55.426Z,2.53
2023-04-25T05:16:43.555Z,1.85
2023-04-25T05:19:28.704Z,1.95
2023-04-25T05:22:21.494Z,2.92
2023-04-25T05:25:20.400Z,2.70
2023-04-25T05:27:57.774Z,2.17
2023-04-25T05:30:45.748Z,2.15
2023-04-25T05:33:18.635Z,2.65
2023-04-25T05:35:46.425Z,2.83
2023-04-25T05:38:13.074Z,2.70
2023-04-25T05:41:05.666Z,2.53
2023-04-25T05:43:39.654Z,2.70
2023-04-25T05:46:20.843Z,2.38
2023-04-25T05:49:13.336Z,2.63
2023-04-25T05:52:04.398Z,3.75
2023-04-25T05:54:47.806Z,2.00
2023-04-25T05:57:32.450Z,2.38
2023-04-25T06:00:00.228Z,2.35
2023-04-25T06:02:40.153Z,2.75
2023-04-25T06:05:07.761Z,2.75
2023-04-25T06:07:34.791Z,2.70
2023-04-25T06:10:04.770Z,2.85
2023-04-25T06:12:31.739Z,2.20
2023-04-25T06:14:58.417Z,2.90
2023-04-25T06:17:25.139Z,2.28
2023-04-25T06:19:52.363Z,2.50
2023-04-25T06:22:19.798Z,2.25
2023-04-25T06:24:46.908Z,2.50
2023-04-25T06:27:15.153Z,1.88
2023-04-25T06:29:43.245Z,2.30
2023-04-25T06:32:09.873Z,2.25
2023-04-25T06:34:36.453Z,2.15
2023-04-25T06:37:03.421Z,2.35
2023-04-25T06:39:30.082Z,2.90
2023-04-25T06:41:56.731Z,2.08
2023-04-25T06:44:49.576Z,2.63
2023-04-25T06:47:17.765Z,1.92
2023-04-25T06:49:44.426Z,2.13
2023-04-25T06:52:11.769Z,2.60
2023-04-25T06:54:38.969Z,1.75
2023-04-25T06:57:17.909Z,2.20
2023-04-25T06:59:44.958Z,2.25
2023-04-25T07:02:11.893Z,2.35
2023-04-25T07:04:39.580Z,2.08
2023-04-25T07:07:06.703Z,2.45
2023-04-25T07:09:40.290Z,2.15
2023-04-25T07:12:07.100Z,2.67
2023-04-25T07:14:34.557Z,1.75
2023-04-25T07:17:02.902Z,2.20
2023-04-25T07:19:31.931Z,2.05
2023-04-25T07:22:04.230Z,1.90
2023-04-25T07:24:32.717Z,2.45
2023-04-25T07:26:59.824Z,2.70
2023-04-25T07:30:01.880Z,2.15
2023-04-25T07:32:28.701Z,1.80
2023-04-25T07:34:55.538Z,2.17
2023-04-25T07:37:22.190Z,1.98
2023-04-25T07:40:07.114Z,1.85
2023-04-25T07:42:33.783Z,2.00
2023-04-25T07:45:01.895Z,2.13
2023-04-25T07:47:29.076Z,2.40
2023-04-25T07:49:57.136Z,2.08
2023-04-25T07:52:23.979Z,2.20
2023-04-25T07:54:58.834Z,1.50
2023-04-25T07:57:34.552Z,1.77
2023-04-25T08:00:02.304Z,2.30
2023-04-25T08:02:29.843Z,2.05
2023-04-25T08:04:56.953Z,1.60
2023-04-25T08:07:23.667Z,1.45
2023-04-25T08:09:55.777Z,2.08
2023-04-25T08:12:26.720Z,1.50
2023-04-25T08:14:54.256Z,1.35
2023-04-25T08:17:21.001Z,1.20
2023-04-25T08:19:47.896Z,1.30
2023-04-25T08:22:24.631Z,0.95
2023-04-25T08:25:08.341Z,1.27
2023-04-25T08:27:35.036Z,1.40
2023-04-25T08:30:04.062Z,1.00
2023-04-25T08:32:31.367Z,1.65
2023-04-25T08:35:18.420Z,1.50
2023-04-25T08:37:45.194Z,1.73
2023-04-25T08:40:15.915Z,1.67
2023-04-25T08:42:58.739Z,1.55
2023-04-25T08:45:28.431Z,1.88
2023-04-25T08:47:55.369Z,1.33
2023-04-25T08:50:23.540Z,1.67
2023-04-25T08:52:54.513Z,1.50
2023-04-25T08:55:22.849Z,1.52
2023-04-25T08:57:55.992Z,1.63
2023-04-25T09:00:23.870Z,2.00
2023-04-25T09:02:50.948Z,1.58
2023-04-25T09:05:19.450Z,1.88
2023-04-25T09:07:48.554Z,1.70
2023-04-25T09:10:17.175Z,1.27
2023-04-25T09:12:44.438Z,1.65
2023-04-25T09:15:19.679Z,1.83
2023-04-25T09:18:08.717Z,1.90
2023-04-25T09:21:00.610Z,1.50
2023-04-25T09:23:49.215Z,1.17
2023-04-25T09:30:51.558Z,1.30
2023-04-25T09:34:42.582Z,1.30
2023-04-25T09:38:05.208Z,1.20
2023-04-25T09:44:54.126Z,0.95
2023-04-25T09:47:58.418Z,1.10
2023-04-25T10:01:36.717Z,1.40
2023-04-25T10:04:32.776Z,1.70
2023-04-25T10:07:53.486Z,1.45
2023-04-25T10:15:15.986Z,1.85
2023-04-25T10:25:29.701Z,1.23
2023-04-25T10:34:27.173Z,1.00
2023-04-25T10:38:28.027Z,1.60
2023-04-25T10:59:39.839Z,1.75
2023-04-25T11:02:49.000Z,1.80
2023-04-25T11:06:30.945Z,1.40
2023-04-25T11:09:53.712Z,1.60
2023-04-25T11:12:58.352Z,2.22
2023-04-25T11:19:22.742Z,2.17
2023-04-25T11:21:49.491Z,2.30
2023-04-25T11:24:17.902Z,1.58
2023-04-25T11:26:48.686Z,1.73
2023-04-25T11:29:15.474Z,1.60
2023-04-25T11:31:46.811Z,1.55
2023-04-25T11:34:18.479Z,1.70
2023-04-25T11:36:46.553Z,1.70
2023-04-25T11:39:13.574Z,1.50
2023-04-25T11:41:41.403Z,1.30
2023-04-25T11:44:08.283Z,1.10
2023-04-25T11:46:36.185Z,1.13
2023-04-25T11:49:03.385Z,1.25
2023-04-25T11:51:29.910Z,0.98
2023-04-25T11:53:56.531Z,1.27
2023-04-25T11:56:23.398Z,1.30
2023-04-25T11:59:03.992Z,1.00
2023-04-25T12:01:34.119Z,1.35
2023-04-25T12:04:31.831Z,1.38
2023-04-25T12:06:58.773Z,1.48
2023-04-25T12:09:34.776Z,1.63
2023-04-25T12:12:04.977Z,1.45
2023-04-25T12:14:33.645Z,1.35
2023-04-25T12:17:01.731Z,1.25
2023-04-25T12:19:34.353Z,1.20
2023-04-25T12:22:04.551Z,1.30
2023-04-25T12:24:38.475Z,1.00
2023-04-25T12:27:07.337Z,1.50
2023-04-25T12:29:47.852Z,1.15
2023-04-25T12:32:16.664Z,1.25
2023-04-25T12:34:43.607Z,1.10
2023-04-25T12:37:10.562Z,1.23
2023-04-25T12:39:37.407Z,1.15
2023-04-25T12:42:06.103Z,1.20
2023-04-25T12:44:35.158Z,1.10
2023-04-25T12:47:02.126Z,1.35
2023-04-25T12:49:28.890Z,1.17
2023-04-25T12:51:55.578Z,1.23
2023-04-25T12:54:22.220Z,2.17
2023-04-25T12:56:48.890Z,1.20
2023-04-25T12:59:15.522Z,1.65
2023-04-25T13:01:42.165Z,1.13
2023-04-25T13:04:09.037Z,1.60
2023-04-25T13:06:35.815Z,1.40
2023-04-25T13:09:02.774Z,1.38
2023-04-25T13:14:01.567Z,1.33
2023-04-25T13:16:28.267Z,1.40
2023-04-25T13:18:55.017Z,1.58
2023-04-25T13:21:21.625Z,1.40
2023-04-25T13:23:48.324Z,1.30
2023-04-25T13:26:14.997Z,1.25
2023-04-25T13:28:43.563Z,1.80
2023-04-25T13:31:11.468Z,1.30
2023-04-25T13:33:38.080Z,1.63
2023-04-25T13:36:04.910Z,1.25
2023-04-25T13:38:31.625Z,1.38
2023-04-25T13:40:58.408Z,1.25
2023-04-25T13:43:24.958Z,1.20
2023-04-25T13:45:51.657Z,1.25
2023-04-25T13:48:19.497Z,2.03
2023-04-25T13:50:46.643Z,1.17
2023-04-25T13:53:13.637Z,1.70
2023-04-25T13:55:40.600Z,1.75
2023-04-25T13:58:11.029Z,1.10
2023-04-25T14:00:40.272Z,1.58
2023-04-25T14:03:08.830Z,1.25
2023-04-25T14:05:39.988Z,1.42
2023-04-25T14:08:10.516Z,1.10
2023-04-25T14:10:37.756Z,1.40
2023-04-25T14:13:05.151Z,1.02
2023-04-25T14:15:35.528Z,1.63
2023-04-25T14:18:02.867Z,1.50
2023-04-25T14:20:29.988Z,2.15
2023-04-25T14:22:58.163Z,1.30
2023-04-25T14:25:25.560Z,1.05
2023-04-25T14:27:52.335Z,1.40
2023-04-25T14:30:20.083Z,1.05
2023-04-25T14:32:46.997Z,1.30
2023-04-25T14:35:13.828Z,1.65
2023-04-25T14:37:40.537Z,1.45
2023-04-25T14:40:11.312Z,1.65
2023-04-25T14:42:38.064Z,1.20
2023-04-25T14:45:07.242Z,1.38
2023-04-25T14:47:34.172Z,1.40
2023-04-25T14:50:00.905Z,1.92
2023-04-25T14:52:27.550Z,1.40
2023-04-25T14:54:54.138Z,1.35
2023-04-25T14:57:20.911Z,1.88
2023-04-25T14:59:47.547Z,2.03
2023-04-25T15:02:14.242Z,1.80
2023-04-25T15:04:41.069Z,1.73
2023-04-25T15:07:07.851Z,2.40
2023-04-25T15:09:34.481Z,1.30
2023-04-25T15:12:01.550Z,1.55
2023-04-25T15:14:28.209Z,1.40
2023-04-25T15:16:54.945Z,1.77
2023-04-25T15:19:21.824Z,1.38
2023-04-25T15:21:48.933Z,1.30
2023-04-25T15:24:16.290Z,2.10
2023-04-25T15:26:43.023Z,1.80
2023-04-25T15:29:09.805Z,1.20
2023-04-25T15:31:36.784Z,1.40
2023-04-25T15:34:03.439Z,2.08
2023-04-25T15:36:31.369Z,3.47
2023-04-25T15:38:58.363Z,1.88
2023-04-25T15:41:26.282Z,1.70
2023-04-25T15:43:53.644Z,1.10
2023-04-25T15:46:21.157Z,1.52
2023-04-25T15:48:48.122Z,1.25
2023-04-25T15:51:14.858Z,2.08
2023-04-25T15:53:41.535Z,1.40
2023-04-25T15:56:08.126Z,1.70
2023-04-25T15:58:34.733Z,1.30
2023-04-25T16:01:01.360Z,1.30
2023-04-25T16:03:28.417Z,1.88
2023-04-25T16:05:55.205Z,2.55
2023-04-25T16:08:21.853Z,2.15
2023-04-25T16:10:49.044Z,1.90
2023-04-25T16:13:15.723Z,2.20
2023-04-25T16:15:42.428Z,3.72
2023-04-25T16:18:09.416Z,2.97
2023-04-25T16:20:36.028Z,3.28
2023-04-25T16:23:02.625Z,3.83
2023-04-25T16:25:29.301Z,4.50
2023-04-25T16:27:55.939Z,4.35
2023-04-25T16:30:22.782Z,4.10
2023-04-25T16:32:49.372Z,4.78
2023-04-25T16:35:16.026Z,2.60
2023-04-25T16:37:42.581Z,3.72
2023-04-25T16:40:09.948Z,3.70
2023-04-25T16:42:36.920Z,3.15
2023-04-25T16:45:05.172Z,3.33
2023-04-25T16:47:32.368Z,2.22
2023-04-25T16:50:00.481Z,2.33
2023-04-25T16:52:27.199Z,2.03
2023-04-25T16:54:53.779Z,1.65
2023-04-25T16:57:21.141Z,1.85
2023-04-25T16:59:47.857Z,2.05
2023-04-25T17:02:15.140Z,1.95
2023-04-25T17:04:42.018Z,1.77
2023-04-25T17:07:09.121Z,1.60
2023-04-25T17:09:36.296Z,13.63
2023-04-25T17:12:04.024Z,12.05
2023-04-25T17:14:33.004Z,10.13
2023-04-25T17:16:59.747Z,17.13
2023-04-25T17:19:26.425Z,12.52
2023-04-25T17:21:53.185Z,9.68
2023-04-25T17:24:21.955Z,4.05
2023-04-25T17:26:49.077Z,16.38
2023-04-25T17:29:15.872Z,12.80
2023-04-25T17:31:42.689Z,10.70
2023-04-25T17:34:09.896Z,3.53
2023-04-25T17:36:36.590Z,3.78
2023-04-25T17:39:06.050Z,3.58
2023-04-25T17:41:32.668Z,1.80
2023-04-25T17:43:59.212Z,1.42
2023-04-25T17:46:27.478Z,1.10
2023-04-25T17:48:54.412Z,1.60
2023-04-25T17:51:21.392Z,1.77
2023-04-25T17:53:48.010Z,1.63
2023-04-25T17:56:25.800Z,2.22
2023-04-25T17:58:54.214Z,2.75
2023-04-25T18:01:21.365Z,2.00
2023-04-25T18:03:49.935Z,2.60
2023-04-25T18:06:17.839Z,2.85
2023-04-25T18:08:44.840Z,2.42
2023-04-25T18:11:12.107Z,2.15
2023-04-25T18:13:39.571Z,2.20
2023-04-25T18:16:07.454Z,2.80
2023-04-25T18:18:36.080Z,3.15
2023-04-25T18:21:05.306Z,2.88
2023-04-25T18:23:34.213Z,4.05
2023-04-25T18:26:02.280Z,2.97
2023-04-25T18:28:29.312Z,1.58
2023-04-25T18:30:56.684Z,1.70
2023-04-25T18:33:23.438Z,2.00
2023-04-25T18:35:58.822Z,3.17
2023-04-25T18:41:00.043Z,1.73
2023-04-25T18:43:32.615Z,1.83
2023-04-25T18:45:59.317Z,2.10
2023-04-25T18:48:26.371Z,2.55
2023-04-25T18:50:53.118Z,2.80
2023-04-25T18:53:19.702Z,2.80
2023-04-25T18:55:46.684Z,2.40
2023-04-25T18:58:13.235Z,2.90
2023-04-25T19:00:40.099Z,2.00
2023-04-25T19:03:07.665Z,1.90
2023-04-25T19:05:34.429Z,2.03
2023-04-25T19:08:00.993Z,2.72
2023-04-25T19:10:28.861Z,2.22
2023-04-25T19:12:55.710Z,2.00
2023-04-25T19:15:22.555Z,2.13
2023-04-25T19:17:49.231Z,2.13
2023-04-25T19:20:16.382Z,2.47
2023-04-25T19:22:43.549Z,2.13
2023-04-25T19:25:11.442Z,1.80
2023-04-25T19:27:38.785Z,1.77
2023-04-25T19:30:09.397Z,2.30
2023-04-25T19:32:36.216Z,1.80
2023-04-25T19:35:07.105Z,1.38
2023-04-25T19:37:34.617Z,1.65
2023-04-25T19:40:01.268Z,1.92
2023-04-25T19:42:27.878Z,8.70
2023-04-25T19:44:54.990Z,6.00
2023-04-25T19:47:21.764Z,8.32
2023-04-25T19:49:48.493Z,4.60
2023-04-25T19:52:16.251Z,3.85
2023-04-25T19:54:42.879Z,2.80
2023-04-25T19:57:09.533Z,1.70
2023-04-25T19:59:36.328Z,2.85
2023-04-25T20:02:04.828Z,1.90
2023-04-25T20:04:31.694Z,1.70
2023-04-25T20:06:59.445Z,1.83
2023-04-25T20:09:26.298Z,1.75
2023-04-25T20:11:53.173Z,2.20
2023-04-25T20:14:20.370Z,2.20
2023-04-25T20:16:47.756Z,2.97
2023-04-25T20:19:14.572Z,2.60
2023-04-25T20:21:41.914Z,2.42
2023-04-25T20:24:08.854Z,2.55
2023-04-25T20:26:35.695Z,2.33
2023-04-25T20:29:02.294Z,3.25
2023-04-25T20:31:29.899Z,2.42
2023-04-25T20:33:56.550Z,2.40
2023-04-25T20:36:23.156Z,2.85
2023-04-25T20:38:50.059Z,2.40
2023-04-25T20:41:16.884Z,2.42
2023-04-25T20:43:43.792Z,2.83
2023-04-25T20:46:10.711Z,2.75
2023-04-25T20:48:37.457Z,2.70
2023-04-25T20:51:07.085Z,2.72
2023-04-25T20:53:34.809Z,2.75
2023-04-25T20:56:01.350Z,2.50
2023-04-25T20:58:28.633Z,2.60
2023-04-25T21:00:56.496Z,3.45
2023-04-25T21:03:23.346Z,2.45
2023-04-25T21:05:50.214Z,3.15
2023-04-25T21:08:17.461Z,2.78
2023-04-25T21:10:44.134Z,2.88
2023-04-25T21:13:12.077Z,2.63
2023-04-25T21:15:38.846Z,2.67
2023-04-25T21:18:05.615Z,2.70
2023-04-25T21:20:32.948Z,3.20
2023-04-25T21:22:59.668Z,2.63
2023-04-25T21:25:31.143Z,2.55
2023-04-25T21:27:58.811Z,3.00
2023-04-25T21:30:25.994Z,2.88
2023-04-25T21:32:53.202Z,2.90
2023-04-25T21:35:21.429Z,2.72
2023-04-25T21:37:48.491Z,2.78
2023-04-25T21:40:15.607Z,2.90
2023-04-25T21:42:44.453Z,2.30
2023-04-25T21:45:11.932Z,2.80
2023-04-25T21:47:39.180Z,2.20
2023-04-25T21:50:06.251Z,2.30
2023-04-25T21:52:32.906Z,2.67
2023-04-25T21:54:59.568Z,2.60
2023-04-25T21:57:26.356Z,2.42
2023-04-25T21:59:53.533Z,2.13
2023-04-25T22:02:20.475Z,2.30
2023-04-25T22:04:47.833Z,2.40
2023-04-25T22:07:15.558Z,2.40
2023-04-25T22:09:53.714Z,2.03
2023-04-25T22:12:21.512Z,2.40
2023-04-25T22:14:48.882Z,2.75
2023-04-25T22:17:15.616Z,2.70
2023-04-25T22:19:43.658Z,2.30
2023-04-25T22:22:10.213Z,2.40
2023-04-25T22:24:37.161Z,2.72
2023-04-25T22:27:03.936Z,2.70
2023-04-25T22:29:30.715Z,2.50
2023-04-25T22:31:57.464Z,3.15
2023-04-25T22:34:24.062Z,3.15
2023-04-25T22:36:50.675Z,2.72
2023-04-25T22:39:19.162Z,2.65
2023-04-25T22:41:46.483Z,2.90
2023-04-25T22:44:13.173Z,3.10
2023-04-25T22:46:39.926Z,3.00
2023-04-25T22:49:06.526Z,2.75
2023-04-25T22:51:33.241Z,2.90
2023-04-25T22:54:00.610Z,2.90
2023-04-25T22:56:29.959Z,2.40
2023-04-25T22:58:56.845Z,3.63
2023-04-25T23:01:23.695Z,3.05
2023-04-25T23:03:50.820Z,2.88
2023-04-25T23:06:18.746Z,3.10
2023-04-25T23:08:47.275Z,3.35
2023-04-25T23:11:14.268Z,3.30
2023-04-25T23:13:40.915Z,2.90
2023-04-25T23:16:08.840Z,3.13
2023-04-25T23:18:36.210Z,2.92
2023-04-25T23:21:03.961Z,2.67
2023-04-25T23:23:30.679Z,3.10
2023-04-25T23:25:57.808Z,2.72
2023-04-25T23:28:24.563Z,3.00
2023-04-25T23:30:51.149Z,4.43
2023-04-25T23:33:18.315Z,2.20
2023-04-25T23:35:45.107Z,2.47
2023-04-25T23:38:12.050Z,2.50
2023-04-25T23:40:38.650Z,2.92
2023-04-25T23:43:05.296Z,2.58
2023-04-25T23:45:31.964Z,2.70
2023-04-25T23:47:58.621Z,2.95
2023-04-25T23:50:25.261Z,3.22
2023-04-25T23:52:51.877Z,2.90
2023-04-25T23:55:18.574Z,2.85
2023-04-25T23:57:45.426Z,3.30
